Time;durP1;ratioP1;P1;durP2;ratioP2;P2;SDS_P1;SDS_P2;PMS_P1;PMS_P2;Temp;Humidity;BMP_temperature;BMP_pressure;BME280_temperature;BME280_humidity;BME280_pressure;Samples;Min_cycle;Max_cycle;Signal;HPM_P1;HPM_P2
2023/09/07 00:00:42;;;;;;;11.80;6.90;;;;;;;20.97;79.63;95109.75;5029113;28;20196;-43
2023/09/07 00:03:10;;;;;;;11.77;7.45;;;;;;;20.94;80.22;95112.75;5041529;28;20594;-45
2023/09/07 00:05:37;;;;;;;7.30;6.57;;;;;;;20.93;80.59;95113.72;5036803;28;20257;-45
2023/09/07 00:08:05;;;;;;;12.00;7.13;;;;;;;20.94;80.53;95102.34;5048734;28;20329;-44
2023/09/07 00:10:35;;;;;;;8.50;7.45;;;;;;;20.93;81.08;95094.72;5048853;28;20607;-45
2023/09/07 00:13:01;;;;;;;7.97;6.90;;;;;;;20.91;81.03;95094.13;5048673;28;20195;-44
2023/09/07 00:15:28;;;;;;;8.95;7.28;;;;;;;20.90;81.18;95095.91;5048777;28;20195;-44
2023/09/07 00:17:56;;;;;;;7.90;7.13;;;;;;;20.92;81.18;95103.53;5048489;28;20195;-44
2023/09/07 00:20:25;;;;;;;9.52;7.05;;;;;;;20.92;81.63;95101.72;5048048;28;20187;-44
2023/09/07 00:22:51;;;;;;;10.63;7.82;;;;;;;20.90;81.92;95102.91;5048683;28;20195;-43
2023/09/07 00:25:20;;;;;;;12.70;6.95;;;;;;;20.88;81.92;95108.28;5048847;28;20195;-45
2023/09/07 00:27:46;;;;;;;10.73;7.95;;;;;;;20.89;82.24;95109.88;5048487;28;20667;-43
2023/09/07 00:30:14;;;;;;;8.77;7.88;;;;;;;20.89;82.20;95112.50;5048610;28;20242;-45
2023/09/07 00:32:41;;;;;;;8.77;6.95;;;;;;;20.84;82.80;95107.06;5048432;28;20257;-42
2023/09/07 00:35:08;;;;;;;14.35;7.13;;;;;;;20.83;83.01;95097.66;5046921;28;20703;-44
2023/09/07 00:37:36;;;;;;;9.52;7.35;;;;;;;20.86;83.00;95109.50;5048198;28;20201;-43
2023/09/07 00:40:08;;;;;;;9.13;8.20;;;;;;;20.82;83.60;95106.47;5051633;28;20207;-44
2023/09/07 00:42:35;;;;;;;8.18;7.30;;;;;;;20.79;83.96;95105.03;5051559;28;20301;-43
2023/09/07 00:45:02;;;;;;;15.07;7.97;;;;;;;20.79;84.13;95101.63;5051845;28;20188;-44
2023/09/07 00:47:29;;;;;;;14.57;8.20;;;;;;;20.79;84.08;95099.03;5052358;28;20268;-44
2023/09/07 00:49:58;;;;;;;8.85;7.95;;;;;;;20.73;84.53;95090.22;5052081;28;20591;-45
2023/09/07 00:52:25;;;;;;;10.55;8.43;;;;;;;20.72;85.07;95093.00;5051201;28;20282;-45
2023/09/07 00:54:53;;;;;;;9.90;8.88;;;;;;;20.68;85.03;95090.00;5051487;28;20674;-45
2023/09/07 00:57:20;;;;;;;10.20;8.95;;;;;;;20.70;84.84;95100.19;5052200;28;20191;-44
2023/09/07 00:59:47;;;;;;;13.48;9.07;;;;;;;20.67;84.97;95096.16;5052183;28;20234;-44
2023/09/07 01:02:14;;;;;;;11.52;9.40;;;;;;;20.68;85.50;95086.56;5051610;28;20183;-43
2023/09/07 01:04:42;;;;;;;9.55;8.05;;;;;;;20.68;85.59;95087.38;5051255;28;20265;-43
2023/09/07 01:07:15;;;;;;;10.38;8.20;;;;;;;20.67;85.73;95090.16;5051084;28;20187;-43
2023/09/07 01:09:44;;;;;;;11.55;9.45;;;;;;;20.60;86.29;95091.94;5051455;28;20187;-43
2023/09/07 01:12:16;;;;;;;11.27;10.02;;;;;;;20.53;86.94;95087.47;5051712;28;20195;-44
2023/09/07 01:14:43;;;;;;;11.13;9.85;;;;;;;20.48;87.16;95076.84;5051734;28;20237;-44
2023/09/07 01:17:11;;;;;;;13.93;9.93;;;;;;;20.21;87.30;95036.88;5051854;28;20183;-43
2023/09/07 01:19:38;;;;;;;12.02;10.77;;;;;;;20.49;87.41;95081.03;5045516;28;20692;-43
2023/09/07 01:22:07;;;;;;;12.95;10.48;;;;;;;20.49;87.72;95080.25;5031622;28;20207;-43
2023/09/07 01:24:36;;;;;;;12.27;10.70;;;;;;;20.34;87.79;95053.53;5031135;28;20203;-44
2023/09/07 01:27:05;;;;;;;14.68;10.80;;;;;;;20.49;87.82;95075.84;5039019;28;20214;-44
2023/09/07 01:29:33;;;;;;;14.65;10.95;;;;;;;20.51;88.09;95086.06;5051254;28;20227;-45
2023/09/07 01:32:00;;;;;;;12.30;10.90;;;;;;;20.39;88.04;95062.38;5051060;28;20191;-45
2023/09/07 01:34:28;;;;;;;14.82;9.95;;;;;;;20.50;87.79;95090.44;5051020;28;20574;-45
2023/09/07 01:36:55;;;;;;;14.40;10.85;;;;;;;20.45;87.78;95084.97;5048920;28;20202;-43
2023/09/07 01:39:24;;;;;;;12.80;11.02;;;;;;;20.47;87.72;95085.63;5051013;28;20702;-42
2023/09/07 01:41:50;;;;;;;13.25;10.85;;;;;;;20.45;87.64;95082.38;5035085;28;20705;-44
2023/09/07 01:44:17;;;;;;;11.32;10.13;;;;;;;20.47;88.20;95090.81;5031095;28;20199;-43
2023/09/07 01:46:44;;;;;;;16.48;10.63;;;;;;;20.52;88.55;95090.28;5030844;28;20196;-44
2023/09/07 01:49:11;;;;;;;13.23;10.50;;;;;;;20.46;88.63;95070.19;5030845;28;20195;-43
2023/09/07 01:51:38;;;;;;;14.02;12.10;;;;;;;20.60;88.08;95084.13;5030778;28;20207;-45
2023/09/07 01:54:05;;;;;;;12.85;10.85;;;;;;;20.58;87.98;95086.91;5050909;28;20190;-45
2023/09/07 01:56:35;;;;;;;13.80;10.23;;;;;;;20.66;87.80;95085.97;5050367;28;20240;-44
2023/09/07 01:59:02;;;;;;;12.75;10.10;;;;;;;20.67;87.70;95084.97;5032677;28;20241;-44
2023/09/07 02:01:31;;;;;;;14.52;11.07;;;;;;;20.63;87.58;95074.13;5048762;28;20191;-44
2023/09/07 02:03:58;;;;;;;11.75;10.55;;;;;;;20.74;87.28;95083.22;5018801;28;20192;-43
2023/09/07 02:06:25;;;;;;;12.43;11.15;;;;;;;20.71;87.01;95079.19;5030187;28;20575;-44
2023/09/07 02:08:52;;;;;;;12.20;10.98;;;;;;;20.76;86.96;95086.41;5030597;28;20219;-43
2023/09/07 02:11:19;;;;;;;14.68;11.07;;;;;;;20.75;86.96;95090.00;5031458;28;20194;-44
2023/09/07 02:13:49;;;;;;;12.73;11.43;;;;;;;20.76;86.35;95081.22;5042494;28;20191;-44
2023/09/07 02:16:18;;;;;;;12.77;11.48;;;;;;;20.79;86.42;95093.84;5029624;28;20556;-43
2023/09/07 02:18:46;;;;;;;12.30;11.10;;;;;;;20.79;86.20;95086.03;5030131;28;20219;-42
2023/09/07 02:21:17;;;;;;;13.93;10.98;;;;;;;20.72;86.40;95080.00;5030070;28;20192;-44
2023/09/07 02:23:44;;;;;;;17.35;11.18;;;;;;;20.76;86.90;95089.81;5031397;28;20201;-44
2023/09/07 02:26:10;;;;;;;11.82;10.63;;;;;;;20.32;87.30;95021.75;5030299;28;20180;-43
2023/09/07 02:28:37;;;;;;;13.05;10.70;;;;;;;20.78;87.24;95094.84;5031298;28;20195;-43
2023/09/07 02:31:09;;;;;;;13.07;10.85;;;;;;;20.73;87.55;95095.41;5049658;28;20249;-43
2023/09/07 02:33:36;;;;;;;15.75;10.88;;;;;;;20.70;87.84;95092.38;5048323;28;20256;-44
2023/09/07 02:36:03;;;;;;;13.20;11.77;;;;;;;20.68;87.79;95096.97;5037476;28;20203;-44
2023/09/07 02:38:30;;;;;;;16.95;11.02;;;;;;;20.64;87.90;95096.56;5029821;28;20247;-44
2023/09/07 02:41:01;;;;;;;14.02;11.85;;;;;;;20.52;87.90;95080.69;5012465;28;20218;-44
2023/09/07 02:43:28;;;;;;;13.68;12.35;;;;;;;20.67;87.96;95100.56;5030831;28;20195;-43
2023/09/07 02:45:54;;;;;;;11.88;10.77;;;;;;;20.73;87.80;95105.00;5033987;28;20567;-43
2023/09/07 02:48:23;;;;;;;12.77;11.52;;;;;;;20.72;87.47;95100.78;5029725;28;20187;-43
2023/09/07 02:51:01;;;;;;;12.75;11.13;;;;;;;20.73;87.73;95105.00;5030149;28;20204;-45
2023/09/07 02:53:28;;;;;;;14.23;12.13;;;;;;;20.75;87.53;95101.22;5029525;28;20198;-44
2023/09/07 02:55:56;;;;;;;13.70;11.55;;;;;;;20.26;87.14;95026.72;5030812;28;20227;-42
2023/09/07 02:58:25;;;;;;;15.50;11.02;;;;;;;20.75;87.77;95098.63;5029998;28;20202;-44
2023/09/07 03:00:52;;;;;;;13.20;11.10;;;;;;;20.73;87.57;95090.22;5029446;28;20226;-43
2023/09/07 03:03:19;;;;;;;14.70;11.25;;;;;;;20.70;87.79;95098.38;5028818;28;20202;-42
2023/09/07 03:05:48;;;;;;;14.57;11.55;;;;;;;20.59;88.02;95085.91;5030576;28;20268;-42
2023/09/07 03:08:15;;;;;;;13.02;11.60;;;;;;;20.67;88.17;95106.56;5028904;28;20192;-43
2023/09/07 03:10:43;;;;;;;13.48;12.07;;;;;;;20.62;88.07;95098.53;5029422;28;20644;-44
2023/09/07 03:13:11;;;;;;;17.50;12.18;;;;;;;20.64;88.36;95106.94;5029307;28;20214;-43
2023/09/07 03:15:38;;;;;;;13.77;12.27;;;;;;;20.61;88.05;95091.72;5028967;28;20226;-42
2023/09/07 03:18:05;;;;;;;14.73;11.85;;;;;;;20.62;88.32;95101.13;5029168;28;20188;-44
2023/09/07 03:20:34;;;;;;;14.40;12.90;;;;;;;20.55;88.76;95095.06;5029085;28;20301;-44
2023/09/07 03:23:03;;;;;;;16.92;12.82;;;;;;;20.57;88.81;95100.91;5029541;28;20202;-44
2023/09/07 03:25:30;;;;;;;16.42;14.13;;;;;;;20.53;89.16;95087.47;5029886;28;20195;-44
2023/09/07 03:27:57;;;;;;;17.17;14.73;;;;;;;20.53;89.52;95094.47;5038390;28;20253;-44
2023/09/07 03:30:24;;;;;;;18.23;13.75;;;;;;;20.51;89.95;95094.66;5028775;28;20653;-44
2023/09/07 03:32:53;;;;;;;21.92;14.50;;;;;;;20.52;89.72;95103.25;5029530;28;20183;-43
2023/09/07 03:35:20;;;;;;;16.92;14.00;;;;;;;20.50;90.41;95105.22;5028843;28;20188;-44
2023/09/07 03:37:47;;;;;;;16.73;14.98;;;;;;;20.38;90.78;95098.91;5033820;28;20191;-44
2023/09/07 03:40:15;;;;;;;19.42;14.25;;;;;;;20.42;91.28;95111.38;5049018;28;20210;-43
2023/09/07 03:42:43;;;;;;;16.60;14.85;;;;;;;20.35;91.30;95099.31;5049348;28;20195;-43
2023/09/07 03:45:11;;;;;;;18.10;16.02;;;;;;;20.40;91.37;95115.13;5048785;28;20198;-43
2023/09/07 03:47:39;;;;;;;18.85;14.55;;;;;;;20.37;91.88;95116.28;5047557;28;20195;-44
2023/09/07 03:50:06;;;;;;;16.10;14.27;;;;;;;20.37;92.08;95123.28;5031807;28;20196;-45
2023/09/07 03:52:33;;;;;;;18.73;14.02;;;;;;;20.33;92.72;95122.06;5029086;28;20196;-43
2023/09/07 03:55:01;;;;;;;16.20;14.55;;;;;;;20.29;93.20;95122.44;5028878;28;20203;-43
2023/09/07 03:57:30;;;;;;;15.93;14.13;;;;;;;20.28;93.68;95126.00;5029291;28;20196;-44
2023/09/07 03:59:57;;;;;;;17.33;15.48;;;;;;;20.28;93.68;95128.63;5028911;28;20235;-45
2023/09/07 04:02:24;;;;;;;15.80;14.05;;;;;;;20.18;94.22;95116.94;5037606;28;20175;-44
2023/09/07 04:04:55;;;;;;;16.65;14.80;;;;;;;20.26;93.89;95125.41;5048891;28;20191;-44
2023/09/07 04:07:22;;;;;;;16.60;14.90;;;;;;;20.30;93.92;95128.44;5048740;28;20278;-42
2023/09/07 04:09:49;;;;;;;16.45;14.23;;;;;;;20.28;93.70;95133.00;5043594;28;20180;-43
2023/09/07 04:12:16;;;;;;;16.40;14.80;;;;;;;20.29;93.86;95124.22;5028535;28;20192;-43
2023/09/07 04:14:44;;;;;;;18.83;13.95;;;;;;;20.30;94.50;95126.66;5031538;28;20247;-45
2023/09/07 04:17:12;;;;;;;18.27;14.32;;;;;;;20.18;94.24;95107.34;5050302;28;20198;-44
2023/09/07 04:19:39;;;;;;;18.50;14.90;;;;;;;20.28;94.36;95126.00;5053001;28;20214;-44
2023/09/07 04:22:06;;;;;;;15.20;13.65;;;;;;;20.31;94.61;95124.84;5052343;28;20187;-44
2023/09/07 04:24:33;;;;;;;20.27;15.05;;;;;;;20.27;94.91;95121.00;5050680;28;20191;-43
2023/09/07 04:27:03;;;;;;;16.98;14.43;;;;;;;20.25;95.25;95122.97;5052028;28;20643;-42
2023/09/07 04:29:30;;;;;;;16.20;13.50;;;;;;;20.27;95.30;95129.59;5052383;28;20226;-45
2023/09/07 04:32:06;;;;;;;16.43;13.63;;;;;;;20.27;95.46;95131.41;5052196;28;20195;-44
2023/09/07 04:34:33;;;;;;;16.10;13.65;;;;;;;20.26;95.44;95128.00;5050162;28;20190;-43
2023/09/07 04:37:03;;;;;;;17.20;14.45;;;;;;;20.27;95.65;95129.59;5037977;28;20612;-44
2023/09/07 04:39:35;;;;;;;16.35;13.45;;;;;;;20.28;95.51;95130.41;5032425;28;20211;-44
2023/09/07 04:42:02;;;;;;;18.67;13.13;;;;;;;20.30;95.32;95128.44;5032380;28;20184;-43
2023/09/07 04:44:31;;;;;;;16.37;13.27;;;;;;;20.12;95.02;95108.13;5032783;28;20188;-45
2023/09/07 04:46:59;;;;;;;17.08;13.95;;;;;;;20.32;94.58;95136.03;5044389;28;20203;-45
2023/09/07 04:49:27;;;;;;;17.63;14.52;;;;;;;20.30;94.19;95138.84;5048554;28;20211;-45
2023/09/07 04:51:54;;;;;;;16.02;14.32;;;;;;;20.25;93.89;95126.41;5024658;28;20183;-45
2023/09/07 04:54:21;;;;;;;15.18;13.38;;;;;;;20.37;93.79;95149.25;5050742;28;20191;-44
2023/09/07 04:56:48;;;;;;;17.42;13.55;;;;;;;20.37;93.85;95142.28;5035458;28;20188;-43
2023/09/07 04:59:15;;;;;;;15.05;13.27;;;;;;;20.38;93.78;95146.50;5043771;28;20198;-44
2023/09/07 05:01:44;;;;;;;14.70;13.18;;;;;;;20.41;93.39;95146.09;5052242;28;20180;-44
2023/09/07 05:04:13;;;;;;;15.88;14.15;;;;;;;20.41;93.04;95150.50;5044398;28;20318;-44
2023/09/07 05:06:41;;;;;;;16.00;14.00;;;;;;;20.40;93.04;95146.31;5042217;28;20245;-45
2023/09/07 05:09:08;;;;;;;19.77;13.45;;;;;;;19.95;92.95;95075.59;5051158;28;20191;-44
2023/09/07 05:11:38;;;;;;;15.30;13.48;;;;;;;20.41;92.47;95142.72;5051075;28;20191;-44
2023/09/07 05:14:05;;;;;;;17.88;13.85;;;;;;;20.40;91.85;95146.31;5051383;28;20201;-45
2023/09/07 05:16:32;;;;;;;13.50;12.10;;;;;;;20.38;91.51;95143.91;5051319;28;20202;-43
2023/09/07 05:18:59;;;;;;;13.63;12.23;;;;;;;20.42;91.12;95144.31;5051172;28;20389;-44
2023/09/07 05:21:27;;;;;;;14.30;12.80;;;;;;;20.45;90.95;95149.13;5033870;28;20230;-44
2023/09/07 05:23:54;;;;;;;13.98;12.52;;;;;;;20.43;91.04;95156.34;5051138;28;20195;-43
2023/09/07 05:26:24;;;;;;;17.15;13.40;;;;;;;20.48;91.52;95162.59;5051095;28;20195;-44
2023/09/07 05:28:51;;;;;;;19.75;15.77;;;;;;;20.46;92.36;95159.34;5051276;28;20202;-44
2023/09/07 05:31:20;;;;;;;19.70;13.35;;;;;;;20.49;92.58;95161.59;5051313;28;20695;-43
2023/09/07 05:33:47;;;;;;;17.00;14.48;;;;;;;20.49;93.43;95160.78;5050868;28;20184;-42
2023/09/07 05:36:14;;;;;;;19.95;15.55;;;;;;;20.52;93.68;95156.03;5051184;28;20187;-45
2023/09/07 05:38:47;;;;;;;17.60;14.47;;;;;;;20.54;93.72;95163.63;5050921;28;20215;-45
2023/09/07 05:41:14;;;;;;;16.73;14.98;;;;;;;20.54;93.45;95156.63;5051242;28;20215;-43
2023/09/07 05:43:42;;;;;;;18.40;15.00;;;;;;;20.48;93.81;95152.19;5051302;28;20202;-42
2023/09/07 05:46:09;;;;;;;16.75;13.77;;;;;;;20.52;93.96;95157.84;5050841;28;20188;-45
2023/09/07 05:48:37;;;;;;;15.70;14.10;;;;;;;20.50;94.12;95155.41;5050975;28;20199;-44
2023/09/07 05:51:04;;;;;;;17.20;13.60;;;;;;;20.55;93.71;95160.03;5050691;28;20195;-44
2023/09/07 05:53:31;;;;;;;15.63;13.07;;;;;;;20.66;92.84;95164.72;5050691;28;20659;-42
2023/09/07 05:55:59;;;;;;;13.90;12.30;;;;;;;20.72;91.91;95166.56;5050831;28;20296;-44
2023/09/07 05:58:27;;;;;;;13.05;11.85;;;;;;;20.76;91.50;95157.41;5032901;28;20196;-45
2023/09/07 06:00:54;;;;;;;19.63;13.95;;;;;;;20.83;91.35;95161.84;5050578;28;20264;-44
2023/09/07 06:03:20;;;;;;;15.85;12.77;;;;;;;20.96;90.67;95161.94;5050898;28;20567;-45
2023/09/07 06:06:08;;;;;;;13.88;12.05;;;;;;;21.06;89.68;95162.41;5050540;28;20191;-44
2023/09/07 06:08:35;;;;;;;13.38;11.60;;;;;;;21.13;88.82;95167.66;5051054;28;20179;-46
2023/09/07 06:11:03;;;;;;;16.90;12.07;;;;;;;21.36;88.00;95154.41;5050764;28;20249;-43
2023/09/07 06:13:30;;;;;;;15.55;11.60;;;;;;;21.72;86.84;95156.75;5050583;28;20195;-44
2023/09/07 06:15:56;;;;;;;14.07;11.00;;;;;;;22.28;84.13;95172.16;5050572;28;20207;-44
2023/09/07 06:18:23;;;;;;;14.40;11.00;;;;;;;22.86;82.04;95174.19;5050706;28;20186;-45
2023/09/07 06:20:50;;;;;;;16.67;11.23;;;;;;;23.41;78.81;95165.06;5050239;28;20572;-45
2023/09/07 06:23:17;;;;;;;16.30;10.27;;;;;;;23.99;76.67;95165.03;5050479;28;20663;-45
2023/09/07 06:25:43;;;;;;;13.45;10.70;;;;;;;24.48;72.42;95167.97;5050072;28;20245;-43
2023/09/07 06:28:12;;;;;;;10.05;9.05;;;;;;;24.72;71.47;95175.03;5050376;28;20191;-44
2023/09/07 06:30:39;;;;;;;11.73;8.80;;;;;;;25.13;68.90;95176.34;5049076;28;20236;-44
2023/09/07 06:33:06;;;;;;;10.40;9.02;;;;;;;25.47;68.31;95177.56;5050401;28;20202;-44
2023/09/07 06:35:33;;;;;;;9.85;8.85;;;;;;;25.82;65.80;95170.97;5050038;28;20198;-43
2023/09/07 06:38:00;;;;;;;8.75;7.95;;;;;;;26.05;64.40;95172.91;5049411;28;20199;-45
2023/09/07 06:40:26;;;;;;;9.70;8.68;;;;;;;26.20;63.42;95181.16;5049914;28;20230;-45
2023/09/07 06:42:54;;;;;;;12.57;8.57;;;;;;;26.44;62.99;95184.69;5049905;28;20218;-45
2023/09/07 06:45:23;;;;;;;8.00;7.20;;;;;;;26.73;61.76;95177.78;5049830;28;20729;-43
2023/09/07 06:47:50;;;;;;;15.80;7.55;;;;;;;26.99;59.84;95185.22;5049736;28;20248;-45
2023/09/07 06:50:18;;;;;;;10.93;7.88;;;;;;;27.09;58.81;95184.69;5049817;28;20673;-45
2023/09/07 06:52:44;;;;;;;7.22;6.15;;;;;;;27.26;56.99;95184.78;5049723;28;20187;-45
2023/09/07 06:55:11;;;;;;;9.45;7.03;;;;;;;27.43;56.32;95190.94;5050118;28;20198;-43
2023/09/07 06:57:38;;;;;;;9.35;6.65;;;;;;;27.48;55.48;95192.88;5049682;28;20217;-44
2023/09/07 07:00:06;;;;;;;7.47;6.68;;;;;;;27.41;55.15;95190.34;5049955;28;20195;-44
2023/09/07 07:02:35;;;;;;;11.60;7.25;;;;;;;27.23;55.05;95187.88;5049683;28;20278;-45
2023/09/07 07:05:02;;;;;;;7.80;7.03;;;;;;;27.09;55.10;95183.84;5049981;28;20230;-44
2023/09/07 07:07:30;;;;;;;7.30;6.60;;;;;;;26.92;56.24;95189.78;5049286;28;20187;-44
2023/09/07 07:09:57;;;;;;;11.50;6.57;;;;;;;26.70;57.10;95176.41;5049632;28;20571;-45
2023/09/07 07:12:24;;;;;;;9.40;6.70;;;;;;;26.58;57.80;95180.81;5049795;28;20245;-44
2023/09/07 07:14:50;;;;;;;13.70;8.20;;;;;;;26.39;58.42;95182.72;5049834;28;20179;-45
2023/09/07 07:17:17;;;;;;;11.85;6.95;;;;;;;26.34;58.51;95185.22;5049768;28;20213;-43
2023/09/07 07:19:45;;;;;;;13.48;7.30;;;;;;;26.39;59.11;95185.34;5049223;28;20202;-45
2023/09/07 07:22:13;;;;;;;9.90;7.32;;;;;;;26.46;58.31;95182.63;5049568;28;20214;-46
2023/09/07 07:24:40;;;;;;;7.90;6.70;;;;;;;26.67;57.24;95187.34;5049576;28;20188;-44
2023/09/07 07:27:07;;;;;;;8.07;6.30;;;;;;;26.91;56.17;95196.06;5049629;28;20697;-43
2023/09/07 07:29:34;;;;;;;9.55;5.95;;;;;;;26.90;55.69;95202.34;5048785;28;20233;-44
2023/09/07 07:32:01;;;;;;;7.57;6.72;;;;;;;26.80;56.15;95201.28;5049678;28;20249;-44
2023/09/07 07:34:28;;;;;;;9.05;7.03;;;;;;;26.24;56.73;95156.09;5049730;28;20237;-45
2023/09/07 07:36:56;;;;;;;9.23;6.97;;;;;;;26.64;57.19;95207.97;5049538;28;20191;-44
2023/09/07 07:39:23;;;;;;;8.98;7.25;;;;;;;26.64;56.92;95203.56;5049133;28;20191;-45
2023/09/07 07:41:52;;;;;;;9.98;7.25;;;;;;;26.58;56.76;95188.69;5049475;28;20721;-45
2023/09/07 07:44:20;;;;;;;11.10;7.00;;;;;;;26.66;57.22;95217.25;5049917;28;20183;-45
2023/09/07 07:46:49;;;;;;;12.07;6.28;;;;;;;26.69;56.77;95211.56;5049338;28;20195;-44
2023/09/07 07:49:16;;;;;;;8.52;6.88;;;;;;;26.51;57.13;95209.81;5053142;28;20195;-42
2023/09/07 07:51:43;;;;;;;11.38;8.20;;;;;;;26.33;57.28;95199.31;5053539;28;20218;-44
2023/09/07 07:54:11;;;;;;;9.98;6.65;;;;;;;26.40;57.64;95218.41;5053569;28;20713;-45
2023/09/07 07:56:39;;;;;;;11.10;7.78;;;;;;;26.27;58.40;95214.13;5040184;28;20207;-45
2023/09/07 07:59:06;;;;;;;11.95;7.93;;;;;;;26.13;58.96;95220.59;5031179;28;20203;-46
2023/09/07 08:01:33;;;;;;;9.60;7.07;;;;;;;26.17;58.78;95218.31;5030353;28;20695;-45
2023/09/07 08:04:00;;;;;;;10.07;6.63;;;;;;;26.31;57.74;95217.13;5030793;28;20588;-44
2023/09/07 08:06:27;;;;;;;10.07;6.90;;;;;;;26.18;57.32;95209.44;5030444;28;20188;-45
2023/09/07 08:08:53;;;;;;;7.63;6.80;;;;;;;26.19;57.61;95211.81;5030443;28;20521;-46
2023/09/07 08:11:22;;;;;;;8.05;7.35;;;;;;;26.39;57.56;95216.81;5030636;28;20188;-45
2023/09/07 08:13:49;;;;;;;10.05;7.35;;;;;;;26.34;57.44;95214.06;5030418;28;20282;-46
2023/09/07 08:16:15;;;;;;;8.82;7.22;;;;;;;26.37;57.63;95210.97;5030089;28;20196;-44
2023/09/07 08:18:42;;;;;;;9.45;6.40;;;;;;;26.36;57.00;95203.34;5030307;28;20199;-45
2023/09/07 08:21:09;;;;;;;7.22;6.53;;;;;;;26.31;56.58;95208.44;5029881;28;20223;-45
2023/09/07 08:23:36;;;;;;;8.98;6.35;;;;;;;26.16;56.72;95188.66;5030276;28;20575;-44
2023/09/07 08:26:05;;;;;;;8.02;7.22;;;;;;;26.15;56.73;95209.88;5030266;28;20568;-45
2023/09/07 08:28:33;;;;;;;14.25;7.07;;;;;;;26.18;56.94;95185.84;5030146;28;20199;-45
2023/09/07 08:31:00;;;;;;;11.32;7.28;;;;;;;26.64;57.06;95198.31;5029845;28;20235;-45
2023/09/07 08:33:28;;;;;;;9.32;6.60;;;;;;;26.94;55.62;95207.91;5029960;28;20906;-44
2023/09/07 08:35:56;;;;;;;7.38;6.10;;;;;;;27.07;54.02;95212.16;5040530;28;20265;-45
2023/09/07 08:38:27;;;;;;;10.27;6.60;;;;;;;26.98;53.97;95196.72;5052336;28;20217;-44
2023/09/07 08:40:55;;;;;;;8.38;6.82;;;;;;;27.11;53.66;95211.50;5052742;28;20285;-44
2023/09/07 08:43:22;;;;;;;11.13;6.25;;;;;;;27.25;52.36;95210.25;5052048;28;20233;-44
2023/09/07 08:45:59;;;;;;;9.18;6.13;;;;;;;27.34;51.81;95207.28;5052277;28;20301;-44
2023/09/07 08:48:27;;;;;;;7.15;6.47;;;;;;;27.35;51.37;95209.69;5051966;28;20183;-43
2023/09/07 08:50:55;;;;;;;9.70;6.07;;;;;;;27.00;51.86;95183.41;5051982;28;20668;-44
2023/09/07 08:53:22;;;;;;;6.50;5.90;;;;;;;27.00;52.35;95199.94;5052114;28;20187;-44
2023/09/07 08:55:49;;;;;;;7.57;6.40;;;;;;;26.86;52.68;95198.56;5052274;28;20183;-44
2023/09/07 08:58:16;;;;;;;7.13;6.47;;;;;;;26.59;51.80;95190.28;5051445;28;20253;-43
2023/09/07 09:00:43;;;;;;;13.77;5.88;;;;;;;26.05;52.80;95162.41;5050893;28;20193;-44
2023/09/07 09:03:13;;;;;;;6.75;5.53;;;;;;;25.95;53.70;95174.25;5051553;28;20768;-44
2023/09/07 09:05:41;;;;;;;7.88;5.47;;;;;;;26.01;53.60;95194.31;5051714;28;20330;-44
2023/09/07 09:08:14;;;;;;;6.13;5.38;;;;;;;26.18;53.12;95189.25;5049913;28;20296;-44
2023/09/07 09:10:41;;;;;;;6.43;5.75;;;;;;;26.27;52.44;95187.91;5051151;28;20211;-45
2023/09/07 09:13:11;;;;;;;6.95;5.95;;;;;;;26.36;51.91;95190.22;5051174;28;20203;-44
2023/09/07 09:15:38;;;;;;;7.47;5.72;;;;;;;26.42;51.31;95195.34;5051485;28;20195;-43
2023/09/07 09:18:16;;;;;;;5.45;4.93;;;;;;;26.53;51.28;95180.72;5051263;28;20698;-43
2023/09/07 09:20:44;;;;;;;8.43;5.55;;;;;;;26.71;51.28;95187.69;5051092;28;20199;-44
2023/09/07 09:23:12;;;;;;;6.25;5.65;;;;;;;26.83;50.87;95190.34;5051504;28;20198;-43
2023/09/07 09:25:41;;;;;;;7.63;6.53;;;;;;;26.86;49.87;95180.19;5051356;28;20198;-44
2023/09/07 09:28:10;;;;;;;6.20;5.28;;;;;;;26.95;49.70;95184.09;5051603;28;20198;-44
2023/09/07 09:30:36;;;;;;;5.32;4.82;;;;;;;26.80;49.00;95181.09;5051116;28;20235;-44
2023/09/07 09:33:05;;;;;;;7.18;5.65;;;;;;;26.58;48.96;95162.47;5051457;28;20195;-43
2023/09/07 09:35:35;;;;;;;6.90;5.45;;;;;;;26.66;49.42;95191.00;5051248;28;20195;-44
2023/09/07 09:38:04;;;;;;;11.80;6.47;;;;;;;26.57;49.49;95181.88;5050820;28;20248;-44
2023/09/07 09:40:31;;;;;;;8.63;5.35;;;;;;;26.41;49.42;95166.72;5051180;28;20179;-43
2023/09/07 09:43:00;;;;;;;5.60;4.97;;;;;;;26.41;49.51;95177.22;5051296;28;20246;-43
2023/09/07 09:45:28;;;;;;;5.38;4.85;;;;;;;26.43;49.48;95165.50;5050956;28;20671;-43
2023/09/07 09:47:56;;;;;;;7.88;5.60;;;;;;;26.46;49.74;95174.75;5050881;28;20627;-44
2023/09/07 09:50:24;;;;;;;7.53;5.30;;;;;;;26.39;49.66;95174.03;5051021;28;20190;-44
2023/09/07 09:52:53;;;;;;;4.95;4.32;;;;;;;26.41;49.63;95171.97;5051040;28;20659;-44
2023/09/07 09:55:25;;;;;;;5.78;4.68;;;;;;;26.38;49.63;95173.25;5050795;28;20187;-44
2023/09/07 09:57:52;;;;;;;5.82;4.80;;;;;;;26.38;49.78;95170.63;5050778;28;20195;-45
2023/09/07 10:00:25;;;;;;;6.22;5.63;;;;;;;26.38;49.83;95172.41;5050881;28;20187;-43
2023/09/07 10:03:00;;;;;;;5.70;5.20;;;;;;;26.33;50.29;95172.28;5050650;28;20299;-43
2023/09/07 10:05:27;;;;;;;7.60;5.35;;;;;;;26.21;49.76;95153.94;5050317;28;20205;-44
2023/09/07 10:08:02;;;;;;;7.78;5.47;;;;;;;26.23;50.26;95168.41;5050514;28;20605;-43
2023/09/07 10:10:34;;;;;;;7.07;5.25;;;;;;;26.21;50.12;95156.56;5050381;28;20232;-44
2023/09/07 10:13:03;;;;;;;8.75;5.50;;;;;;;26.15;50.52;95160.06;5049990;28;20188;-43
2023/09/07 10:15:31;;;;;;;9.43;5.25;;;;;;;26.11;50.98;95161.53;5050301;28;20202;-44
2023/09/07 10:18:05;;;;;;;5.03;4.55;;;;;;;25.91;50.95;95139.00;5050256;28;20630;-43
2023/09/07 10:20:48;;;;;;;8.95;5.15;;;;;;;26.15;50.79;95154.81;5050385;28;20194;-44
2023/09/07 10:23:17;;;;;;;6.55;5.55;;;;;;;26.11;50.85;95157.06;5050461;28;20194;-46
2023/09/07 10:25:52;;;;;;;8.70;5.32;;;;;;;25.98;50.69;95142.31;5050227;28;20313;-45
2023/09/07 10:28:23;;;;;;;6.13;5.53;;;;;;;25.99;51.06;95157.06;5050259;28;20742;-46
2023/09/07 10:31:03;;;;;;;8.10;5.57;;;;;;;25.93;50.99;95144.00;5050613;28;20261;-45
2023/09/07 10:33:30;;;;;;;7.68;4.88;;;;;;;25.94;50.82;95148.22;5049723;28;20207;-45
2023/09/07 10:35:57;;;;;;;7.68;5.18;;;;;;;26.01;50.68;95154.19;5050299;28;20191;-46
2023/09/07 10:38:26;;;;;;;9.57;5.38;;;;;;;26.02;51.11;95153.16;5049607;28;20195;-45
2023/09/07 10:41:00;;;;;;;6.32;5.22;;;;;;;25.98;51.41;95146.75;5050265;28;20290;-48
2023/09/07 10:43:30;;;;;;;7.72;5.50;;;;;;;25.83;51.75;95136.69;5049677;28;20247;-45
2023/09/07 10:46:00;;;;;;;5.47;4.57;;;;;;;25.90;51.97;95147.88;5049348;28;20195;-45
2023/09/07 10:48:29;;;;;;;6.60;5.80;;;;;;;25.81;51.06;95140.53;5049806;28;20241;-46
2023/09/07 10:50:56;;;;;;;6.88;5.18;;;;;;;25.87;50.57;95148.34;5049995;28;20198;-44
2023/09/07 10:53:29;;;;;;;16.88;5.60;;;;;;;25.82;50.86;95142.97;5050086;28;20187;-46
2023/09/07 10:55:58;;;;;;;17.20;5.68;;;;;;;25.85;51.13;95139.09;5049688;28;20214;-47
2023/09/07 10:58:27;;;;;;;8.32;5.40;;;;;;;25.81;51.14;95114.34;5049836;28;20584;-44
2023/09/07 11:00:54;;;;;;;5.80;5.25;;;;;;;26.03;50.85;95120.69;5049430;28;20199;-43
2023/09/07 11:03:21;;;;;;;7.75;5.18;;;;;;;26.24;50.14;95135.09;5049589;28;20314;-44
2023/09/07 11:05:49;;;;;;;5.43;4.90;;;;;;;26.24;49.95;95135.91;5049713;28;20586;-44
2023/09/07 11:08:16;;;;;;;6.47;5.20;;;;;;;25.93;50.27;95078.50;5049555;28;20666;-44
2023/09/07 11:10:44;;;;;;;7.15;4.68;;;;;;;25.93;50.01;95074.03;5049537;28;20713;-45
2023/09/07 11:13:11;;;;;;;5.80;5.25;;;;;;;26.33;49.70;95146.88;5049497;28;20206;-46
2023/09/07 11:15:39;;;;;;;7.45;5.68;;;;;;;26.33;49.81;95138.19;5049533;28;20183;-43
2023/09/07 11:18:06;;;;;;;10.05;5.63;;;;;;;26.35;50.11;95130.94;5049481;28;20191;-45
2023/09/07 11:20:34;;;;;;;6.03;4.60;;;;;;;26.33;50.03;95136.38;5049331;28;20194;-46
2023/09/07 11:23:01;;;;;;;5.63;4.68;;;;;;;26.27;50.19;95134.66;5049192;28;20214;-43
2023/09/07 11:25:28;;;;;;;5.85;5.13;;;;;;;26.15;50.23;95132.00;5049493;28;20245;-45
2023/09/07 11:27:58;;;;;;;7.47;4.63;;;;;;;26.14;50.53;95140.09;5049347;28;20221;-44